sensor_id;sensor_type;location;lat;lon;timestamp;pressure;altitude;pressure_sealevel;temperature;humidity
34925;BME280;21130;51.728;8.748;2023-04-20T00:00:52;100793.41;;;5.80;100.00
34925;BME280;21130;51.728;8.748;2023-04-20T00:03:22;100789.81;;;5.80;100.00
34925;BME280;21130;51.728;8.748;2023-04-20T00:05:50;100789.16;;;5.78;100.00
34925;BME280;21130;51.728;8.748;2023-04-20T00:08:16;100787.66;;;5.75;100.00
34925;BME280;21130;51.728;8.748;2023-04-20T00:10:43;100785.75;;;5.76;100.00
34925;BME280;21130;51.728;8.748;2023-04-20T00:13:10;100785.97;;;5.74;100.00
34925;BME280;21130;51.728;8.748;2023-04-20T00:15:37;100790.41;;;5.75;100.00
34925;BME280;21130;51.728;8.748;2023-04-20T00:18:03;100785.56;;;5.77;100.00
34925;BME280;21130;51.728;8.748;2023-04-20T00:20:31;100777.25;;;5.71;100.00
34925;BME280;21130;51.728;8.748;2023-04-20T00:22:59;100763.06;;;5.67;100.00
34925;BME280;21130;51.728;8.748;2023-04-20T00:25:25;100764.38;;;5.78;100.00
34925;BME280;21130;51.728;8.748;2023-04-20T00:27:52;100761.63;;;5.84;100.00
34925;BME280;21130;51.728;8.748;2023-04-20T00:30:18;100745.09;;;5.78;100.00
34925;BME280;21130;51.728;8.748;2023-04-20T00:32:45;100743.19;;;5.78;100.00
34925;BME280;21130;51.728;8.748;2023-04-20T00:35:11;100743.63;;;5.89;100.00
34925;BME280;21130;51.728;8.748;2023-04-20T00:37:39;100736.66;;;5.93;100.00
34925;BME280;21130;51.728;8.748;2023-04-20T00:40:07;100743.88;;;5.94;100.00
34925;BME280;21130;51.728;8.748;2023-04-20T00:42:34;100739.69;;;6.04;100.00
34925;BME280;21130;51.728;8.748;2023-04-20T00:45:00;100730.34;;;6.05;100.00
34925;BME280;21130;51.728;8.748;2023-04-20T00:47:27;100728.22;;;6.08;100.00
34925;BME280;21130;51.728;8.748;2023-04-20T00:49:54;100726.72;;;6.12;100.00
34925;BME280;21130;51.728;8.748;2023-04-20T00:52:21;100736.28;;;6.16;100.00
34925;BME280;21130;51.728;8.748;2023-04-20T00:54:49;100727.81;;;6.17;100.00
34925;BME280;21130;51.728;8.748;2023-04-20T00:57:17;100732.47;;;6.10;100.00
34925;BME280;21130;51.728;8.748;2023-04-20T00:59:47;100728.22;;;6.14;100.00
34925;BME280;21130;51.728;8.748;2023-04-20T01:02:13;100725.06;;;6.17;100.00
34925;BME280;21130;51.728;8.748;2023-04-20T01:04:40;100718.06;;;6.08;100.00
34925;BME280;21130;51.728;8.748;2023-04-20T01:07:06;100719.34;;;6.12;100.00
34925;BME280;21130;51.728;8.748;2023-04-20T01:09:36;100714.66;;;6.06;100.00
34925;BME280;21130;51.728;8.748;2023-04-20T01:12:04;100707.47;;;6.05;100.00
34925;BME280;21130;51.728;8.748;2023-04-20T01:14:31;100707.63;;;5.97;100.00
34925;BME280;21130;51.728;8.748;2023-04-20T01:16:57;100712.91;;;5.92;100.00
34925;BME280;21130;51.728;8.748;2023-04-20T01:19:24;100711.66;;;5.94;100.00
34925;BME280;21130;51.728;8.748;2023-04-20T01:21:51;100702.94;;;5.91;100.00
34925;BME280;21130;51.728;8.748;2023-04-20T01:24:18;100705.69;;;5.91;100.00
34925;BME280;21130;51.728;8.748;2023-04-20T01:26:45;100702.09;;;5.83;100.00
34925;BME280;21130;51.728;8.748;2023-04-20T01:29:11;100702.94;;;5.77;100.00
34925;BME280;21130;51.728;8.748;2023-04-20T01:31:38;100699.97;;;5.72;100.00
34925;BME280;21130;51.728;8.748;2023-04-20T01:34:04;100705.03;;;5.62;100.00
34925;BME280;21130;51.728;8.748;2023-04-20T01:36:31;100711.31;;;5.43;100.00
34925;BME280;21130;51.728;8.748;2023-04-20T01:38:57;100703.00;;;5.29;100.00
34925;BME280;21130;51.728;8.748;2023-04-20T01:41:25;100690.88;;;5.17;100.00
34925;BME280;21130;51.728;8.748;2023-04-20T01:43:52;100693.31;;;4.98;100.00
34925;BME280;21130;51.728;8.748;2023-04-20T01:46:19;100692.84;;;4.88;100.00
34925;BME280;21130;51.728;8.748;2023-04-20T01:48:45;100696.59;;;4.81;100.00
34925;BME280;21130;51.728;8.748;2023-04-20T01:51:12;100687.69;;;4.72;100.00
34925;BME280;21130;51.728;8.748;2023-04-20T01:53:38;100687.63;;;4.65;100.00
34925;BME280;21130;51.728;8.748;2023-04-20T01:56:05;100683.38;;;4.63;100.00
34925;BME280;21130;51.728;8.748;2023-04-20T01:58:33;100678.06;;;4.61;100.00
34925;BME280;21130;51.728;8.748;2023-04-20T02:01:00;100673.84;;;4.59;100.00
34925;BME280;21130;51.728;8.748;2023-04-20T02:03:26;100663.25;;;4.55;100.00
34925;BME280;21130;51.728;8.748;2023-04-20T02:05:53;100675.06;;;4.49;100.00
34925;BME280;21130;51.728;8.748;2023-04-20T02:08:19;100676.50;;;4.45;100.00
34925;BME280;21130;51.728;8.748;2023-04-20T02:10:46;100676.06;;;4.42;100.00
34925;BME280;21130;51.728;8.748;2023-04-20T02:13:12;100681.34;;;4.43;100.00
34925;BME280;21130;51.728;8.748;2023-04-20T02:15:40;100671.84;;;4.46;100.00
34925;BME280;21130;51.728;8.748;2023-04-20T02:18:07;100671.00;;;4.45;100.00
34925;BME280;21130;51.728;8.748;2023-04-20T02:20:34;100667.59;;;4.43;100.00
34925;BME280;21130;51.728;8.748;2023-04-20T02:23:03;100671.41;;;4.42;100.00
34925;BME280;21130;51.728;8.748;2023-04-20T02:25:30;100667.59;;;4.43;100.00
34925;BME280;21130;51.728;8.748;2023-04-20T02:27:56;100669.50;;;4.43;100.00
34925;BME280;21130;51.728;8.748;2023-04-20T02:30:22;100664.41;;;4.40;100.00
34925;BME280;21130;51.728;8.748;2023-04-20T02:32:51;100666.09;;;4.41;100.00
34925;BME280;21130;51.728;8.748;2023-04-20T02:35:17;100664.84;;;4.43;100.00
34925;BME280;21130;51.728;8.748;2023-04-20T02:37:44;100652.78;;;4.38;100.00
34925;BME280;21130;51.728;8.748;2023-04-20T02:40:11;100662.31;;;4.42;100.00
34925;BME280;21130;51.728;8.748;2023-04-20T02:42:39;100649.44;;;4.42;100.00
34925;BME280;21130;51.728;8.748;2023-04-20T02:45:07;100657.22;;;4.39;100.00
34925;BME280;21130;51.728;8.748;2023-04-20T02:47:34;100646.69;;;4.42;100.00
34925;BME280;21130;51.728;8.748;2023-04-20T02:50:02;100642.88;;;4.43;100.00
34925;BME280;21130;51.728;8.748;2023-04-20T02:52:29;100642.44;;;4.40;100.00
34925;BME280;21130;51.728;8.748;2023-04-20T02:54:55;100644.09;;;4.34;100.00
34925;BME280;21130;51.728;8.748;2023-04-20T02:57:22;100633.72;;;4.36;100.00
34925;BME280;21130;51.728;8.748;2023-04-20T02:59:49;100641.72;;;4.31;100.00
34925;BME280;21130;51.728;8.748;2023-04-20T03:02:16;100634.28;;;4.25;100.00
34925;BME280;21130;51.728;8.748;2023-04-20T03:04:42;100634.28;;;4.25;100.00
34925;BME280;21130;51.728;8.748;2023-04-20T03:07:10;100633.47;;;4.24;100.00
34925;BME280;21130;51.728;8.748;2023-04-20T03:09:37;100629.56;;;4.12;100.00
34925;BME280;21130;51.728;8.748;2023-04-20T03:12:04;100627.66;;;4.13;100.00
34925;BME280;21130;51.728;8.748;2023-04-20T03:14:30;100625.31;;;4.09;100.00
34925;BME280;21130;51.728;8.748;2023-04-20T03:16:57;100628.22;;;4.01;100.00
34925;BME280;21130;51.728;8.748;2023-04-20T03:19:23;100632.19;;;3.99;100.00
34925;BME280;21130;51.728;8.748;2023-04-20T03:21:50;100635.16;;;3.97;100.00
34925;BME280;21130;51.728;8.748;2023-04-20T03:24:18;100627.50;;;3.93;100.00
34925;BME280;21130;51.728;8.748;2023-04-20T03:26:44;100623.91;;;3.92;100.00
34925;BME280;21130;51.728;8.748;2023-04-20T03:29:11;100629.41;;;3.92;100.00
34925;BME280;21130;51.728;8.748;2023-04-20T03:31:37;100618.59;;;3.90;100.00
34925;BME280;21130;51.728;8.748;2023-04-20T03:34:04;100613.75;;;3.93;100.00
34925;BME280;21130;51.728;8.748;2023-04-20T03:36:30;100616.31;;;3.94;100.00
34925;BME280;21130;51.728;8.748;2023-04-20T03:38:57;100623.91;;;3.92;100.00
34925;BME280;21130;51.728;8.748;2023-04-20T03:41:25;100629.84;;;3.96;100.00
34925;BME280;21130;51.728;8.748;2023-04-20T03:43:51;100632.81;;;3.94;100.00
34925;BME280;21130;51.728;8.748;2023-04-20T03:46:18;100629.66;;;3.97;100.00
34925;BME280;21130;51.728;8.748;2023-04-20T03:48:45;100623.16;;;4.05;100.00
34925;BME280;21130;51.728;8.748;2023-04-20T03:51:11;100622.72;;;4.01;100.00
34925;BME280;21130;51.728;8.748;2023-04-20T03:53:38;100619.69;;;3.96;100.00
34925;BME280;21130;51.728;8.748;2023-04-20T03:56:05;100624.84;;;4.06;100.00
34925;BME280;21130;51.728;8.748;2023-04-20T03:58:33;100621.91;;;4.07;100.00
34925;BME280;21130;51.728;8.748;2023-04-20T04:01:00;100621.91;;;4.07;100.00
34925;BME280;21130;51.728;8.748;2023-04-20T04:03:27;100625.75;;;4.13;100.00
34925;BME280;21130;51.728;8.748;2023-04-20T04:06:19;100617.25;;;4.08;100.00
34925;BME280;21130;51.728;8.748;2023-04-20T04:08:45;100627.22;;;4.09;100.00
34925;BME280;21130;51.728;8.748;2023-04-20T04:11:12;100628.47;;;4.06;100.00
34925;BME280;21130;51.728;8.748;2023-04-20T04:13:40;100627.66;;;4.13;100.00
34925;BME280;21130;51.728;8.748;2023-04-20T04:16:06;100630.34;;;4.06;100.00
34925;BME280;21130;51.728;8.748;2023-04-20T04:18:33;100624.22;;;4.04;100.00
34925;BME280;21130;51.728;8.748;2023-04-20T04:21:01;100633.50;;;4.03;100.00
34925;BME280;21130;51.728;8.748;2023-04-20T04:23:27;100620.22;;;4.06;100.00
34925;BME280;21130;51.728;8.748;2023-04-20T04:25:53;100621.25;;;4.05;100.00
34925;BME280;21130;51.728;8.748;2023-04-20T04:28:21;100627.22;;;4.09;100.00
34925;BME280;21130;51.728;8.748;2023-04-20T04:30:49;100633.56;;;4.09;100.00
34925;BME280;21130;51.728;8.748;2023-04-20T04:33:15;100631.66;;;4.10;100.00
34925;BME280;21130;51.728;8.748;2023-04-20T04:35:43;100634.59;;;4.08;100.00
34925;BME280;21130;51.728;8.748;2023-04-20T04:38:10;100630.59;;;4.11;100.00
34925;BME280;21130;51.728;8.748;2023-04-20T04:40:37;100622.34;;;4.11;100.00
34925;BME280;21130;51.728;8.748;2023-04-20T04:43:04;100613.88;;;4.06;100.00
34925;BME280;21130;51.728;8.748;2023-04-20T04:45:31;100618.50;;;4.05;100.00
34925;BME280;21130;51.728;8.748;2023-04-20T04:47:59;100618.25;;;4.00;100.00
34925;BME280;21130;51.728;8.748;2023-04-20T04:50:27;100625.00;;;3.98;100.00
34925;BME280;21130;51.728;8.748;2023-04-20T04:52:53;100625.72;;;4.06;100.00
34925;BME280;21130;51.728;8.748;2023-04-20T04:55:20;100627.81;;;4.04;100.00
34925;BME280;21130;51.728;8.748;2023-04-20T04:57:47;100617.72;;;4.11;100.00
34925;BME280;21130;51.728;8.748;2023-04-20T05:00:14;100621.25;;;4.05;100.00
34925;BME280;21130;51.728;8.748;2023-04-20T05:02:41;100622.97;;;4.06;100.00
34925;BME280;21130;51.728;8.748;2023-04-20T05:05:10;100611.59;;;4.09;100.00
34925;BME280;21130;51.728;8.748;2023-04-20T05:07:38;100619.81;;;4.09;100.00
34925;BME280;21130;51.728;8.748;2023-04-20T05:10:06;100614.59;;;4.21;100.00
34925;BME280;21130;51.728;8.748;2023-04-20T05:12:33;100613.50;;;4.16;100.00
34925;BME280;21130;51.728;8.748;2023-04-20T05:14:59;100595.38;;;4.21;100.00
34925;BME280;21130;51.728;8.748;2023-04-20T05:17:26;100606.19;;;4.23;100.00
34925;BME280;21130;51.728;8.748;2023-04-20T05:19:52;100614.16;;;4.18;100.00
34925;BME280;21130;51.728;8.748;2023-04-20T05:22:20;100612.31;;;4.25;100.00
34925;BME280;21130;51.728;8.748;2023-04-20T05:24:46;100626.72;;;4.27;100.00
34925;BME280;21130;51.728;8.748;2023-04-20T05:27:13;100617.00;;;4.31;100.00
34925;BME280;21130;51.728;8.748;2023-04-20T05:29:39;100618.72;;;4.32;100.00
34925;BME280;21130;51.728;8.748;2023-04-20T05:32:06;100621.06;;;4.35;100.00
34925;BME280;21130;51.728;8.748;2023-04-20T05:34:32;100625.59;;;4.49;100.00
34925;BME280;21130;51.728;8.748;2023-04-20T05:36:59;100620.53;;;4.53;100.00
34925;BME280;21130;51.728;8.748;2023-04-20T05:39:27;100613.16;;;4.60;100.00
34925;BME280;21130;51.728;8.748;2023-04-20T05:41:53;100620.81;;;4.65;100.00
34925;BME280;21130;51.728;8.748;2023-04-20T05:44:20;100615.56;;;4.70;100.00
34925;BME280;21130;51.728;8.748;2023-04-20T05:46:46;100607.53;;;4.75;100.00
34925;BME280;21130;51.728;8.748;2023-04-20T05:49:14;100618.34;;;4.83;100.00
34925;BME280;21130;51.728;8.748;2023-04-20T05:51:41;100616.91;;;4.87;100.00
34925;BME280;21130;51.728;8.748;2023-04-20T05:54:07;100612.91;;;4.90;100.00
34925;BME280;21130;51.728;8.748;2023-04-20T05:56:36;100616.75;;;5.02;100.00
34925;BME280;21130;51.728;8.748;2023-04-20T05:59:03;100618.91;;;5.07;100.00
34925;BME280;21130;51.728;8.748;2023-04-20T06:01:29;100622.44;;;5.01;100.00
34925;BME280;21130;51.728;8.748;2023-04-20T06:03:56;100619.50;;;5.02;100.00
34925;BME280;21130;51.728;8.748;2023-04-20T06:06:23;100617.41;;;5.11;100.00
34925;BME280;21130;51.728;8.748;2023-04-20T06:08:49;100608.53;;;5.15;100.00
34925;BME280;21130;51.728;8.748;2023-04-20T06:11:17;100613.00;;;5.23;100.00
34925;BME280;21130;51.728;8.748;2023-04-20T06:13:44;100609.84;;;5.33;100.00
34925;BME280;21130;51.728;8.748;2023-04-20T06:16:11;100608.59;;;5.35;100.00
34925;BME280;21130;51.728;8.748;2023-04-20T06:18:38;100607.31;;;5.31;100.00
34925;BME280;21130;51.728;8.748;2023-04-20T06:21:04;100609.44;;;5.36;100.00
34925;BME280;21130;51.728;8.748;2023-04-20T06:23:34;100609.88;;;5.46;100.00
34925;BME280;21130;51.728;8.748;2023-04-20T06:26:02;100613.66;;;5.38;100.00
34925;BME280;21130;51.728;8.748;2023-04-20T06:28:28;100622.56;;;5.40;100.00
34925;BME280;21130;51.728;8.748;2023-04-20T06:30:56;100622.16;;;5.44;100.00
34925;BME280;21130;51.728;8.748;2023-04-20T06:33:23;100616.44;;;5.38;100.00
34925;BME280;21130;51.728;8.748;2023-04-20T06:35:49;100624.25;;;5.35;100.00
34925;BME280;21130;51.728;8.748;2023-04-20T06:38:18;100624.25;;;5.41;100.00
34925;BME280;21130;51.728;8.748;2023-04-20T06:40:45;100617.91;;;5.41;100.00
34925;BME280;21130;51.728;8.748;2023-04-20T06:43:12;100621.06;;;5.31;100.00
34925;BME280;21130;51.728;8.748;2023-04-20T06:45:38;100621.28;;;5.30;100.00
34925;BME280;21130;51.728;8.748;2023-04-20T06:48:06;100621.72;;;5.33;100.00
34925;BME280;21130;51.728;8.748;2023-04-20T06:50:33;100628.50;;;5.37;100.00
34925;BME280;21130;51.728;8.748;2023-04-20T06:53:01;100620.03;;;5.32;100.00
34925;BME280;21130;51.728;8.748;2023-04-20T06:55:29;100625.09;;;5.35;100.00
34925;BME280;21130;51.728;8.748;2023-04-20T06:57:55;100623.25;;;5.49;100.00
34925;BME280;21130;51.728;8.748;2023-04-20T07:00:21;100621.34;;;5.50;100.00
34925;BME280;21130;51.728;8.748;2023-04-20T07:02:49;100623.03;;;5.51;100.00
34925;BME280;21130;51.728;8.748;2023-04-20T07:05:17;100625.78;;;5.51;100.00
34925;BME280;21130;51.728;8.748;2023-04-20T07:07:44;100630.25;;;5.52;100.00
34925;BME280;21130;51.728;8.748;2023-04-20T07:10:13;100632.75;;;5.53;100.00
34925;BME280;21130;51.728;8.748;2023-04-20T07:12:40;100623.44;;;5.48;100.00
34925;BME280;21130;51.728;8.748;2023-04-20T07:15:08;100630.41;;;5.44;100.00
34925;BME280;21130;51.728;8.748;2023-04-20T07:17:34;100630.84;;;5.40;100.00
34925;BME280;21130;51.728;8.748;2023-04-20T07:20:01;100630.00;;;5.40;100.00
34925;BME280;21130;51.728;8.748;2023-04-20T07:22:32;100631.00;;;5.26;100.00
34925;BME280;21130;51.728;8.748;2023-04-20T07:25:00;100629.31;;;5.25;100.00
34925;BME280;21130;51.728;8.748;2023-04-20T07:27:27;100633.94;;;5.17;100.00
34925;BME280;21130;51.728;8.748;2023-04-20T07:29:55;100630.97;;;5.19;100.00
34925;BME280;21130;51.728;8.748;2023-04-20T07:32:21;100630.13;;;5.18;100.00
34925;BME280;21130;51.728;8.748;2023-04-20T07:34:48;100635.63;;;5.18;100.00
34925;BME280;21130;51.728;8.748;2023-04-20T07:37:15;100630.81;;;5.27;100.00
34925;BME280;21130;51.728;8.748;2023-04-20T07:39:43;100634.84;;;5.38;100.00
34925;BME280;21130;51.728;8.748;2023-04-20T07:42:09;100623.47;;;5.61;100.00
34925;BME280;21130;51.728;8.748;2023-04-20T07:44:36;100633.63;;;5.74;100.00
34925;BME280;21130;51.728;8.748;2023-04-20T07:47:02;100630.69;;;5.75;100.00
34925;BME280;21130;51.728;8.748;2023-04-20T07:49:30;100638.94;;;5.89;100.00
34925;BME280;21130;51.728;8.748;2023-04-20T07:51:56;100638.75;;;5.97;100.00
34925;BME280;21130;51.728;8.748;2023-04-20T07:54:23;100628.81;;;6.09;100.00
34925;BME280;21130;51.728;8.748;2023-04-20T07:56:51;100624.97;;;6.37;100.00
34925;BME280;21130;51.728;8.748;2023-04-20T07:59:19;100621.97;;;6.65;100.00
34925;BME280;21130;51.728;8.748;2023-04-20T08:01:45;100617.94;;;6.67;100.00
34925;BME280;21130;51.728;8.748;2023-04-20T08:04:12;100618.75;;;6.75;100.00
34925;BME280;21130;51.728;8.748;2023-04-20T08:16:01;100620.81;;;6.92;100.00
34925;BME280;21130;51.728;8.748;2023-04-20T08:18:27;100624.16;;;6.95;100.00
34925;BME280;21130;51.728;8.748;2023-04-20T08:20:55;100625.50;;;6.79;100.00
34925;BME280;21130;51.728;8.748;2023-04-20T08:23:22;100628.72;;;6.76;100.00
34925;BME280;21130;51.728;8.748;2023-04-20T08:25:52;100629.16;;;6.73;100.00
34925;BME280;21130;51.728;8.748;2023-04-20T08:28:18;100636.28;;;7.00;100.00
34925;BME280;21130;51.728;8.748;2023-04-20T08:30:45;100641.06;;;7.25;100.00
34925;BME280;21130;51.728;8.748;2023-04-20T08:33:13;100634.97;;;7.48;100.00
34925;BME280;21130;51.728;8.748;2023-04-20T08:35:40;100632.78;;;7.56;100.00
34925;BME280;21130;51.728;8.748;2023-04-20T08:38:06;100630.56;;;7.72;100.00
34925;BME280;21130;51.728;8.748;2023-04-20T08:40:35;100636.50;;;7.75;100.00
34925;BME280;21130;51.728;8.748;2023-04-20T08:43:02;100636.38;;;7.57;100.00
34925;BME280;21130;51.728;8.748;2023-04-20T08:45:29;100639.13;;;7.64;100.00
34925;BME280;21130;51.728;8.748;2023-04-20T08:47:57;100647.31;;;7.77;100.00
34925;BME280;21130;51.728;8.748;2023-04-20T08:50:25;100637.91;;;7.85;100.00
34925;BME280;21130;51.728;8.748;2023-04-20T08:52:51;100636.75;;;7.99;100.00
34925;BME280;21130;51.728;8.748;2023-04-20T08:55:18;100640.00;;;8.14;100.00
34925;BME280;21130;51.728;8.748;2023-04-20T08:57:47;100646.75;;;8.25;100.00
34925;BME280;21130;51.728;8.748;2023-04-20T09:00:14;100643.72;;;8.01;100.00
34925;BME280;21130;51.728;8.748;2023-04-20T09:02:48;100639.53;;;7.92;100.00
34925;BME280;21130;51.728;8.748;2023-04-20T09:05:25;100643.91;;;8.07;100.00
34925;BME280;21130;51.728;8.748;2023-04-20T09:07:53;100647.13;;;8.04;100.00
34925;BME280;21130;51.728;8.748;2023-04-20T09:10:20;100644.38;;;8.04;100.00
34925;BME280;21130;51.728;8.748;2023-04-20T09:12:48;100647.41;;;7.95;100.00
34925;BME280;21130;51.728;8.748;2023-04-20T09:15:26;100652.94;;;7.95;100.00
34925;BME280;21130;51.728;8.748;2023-04-20T09:17:53;100645.59;;;7.83;100.00
34925;BME280;21130;51.728;8.748;2023-04-20T09:20:29;100651.00;;;7.96;100.00
34925;BME280;21130;51.728;8.748;2023-04-20T09:22:56;100644.41;;;7.97;100.00
34925;BME280;21130;51.728;8.748;2023-04-20T09:25:23;100649.22;;;8.08;100.00
34925;BME280;21130;51.728;8.748;2023-04-20T09:27:56;100645.63;;;8.08;100.00
34925;BME280;21130;51.728;8.748;2023-04-20T09:30:23;100644.81;;;8.26;100.00
34925;BME280;21130;51.728;8.748;2023-04-20T09:33:00;100651.34;;;8.31;100.00
34925;BME280;21130;51.728;8.748;2023-04-20T09:35:26;100642.69;;;8.28;100.00
34925;BME280;21130;51.728;8.748;2023-04-20T09:37:54;100647.69;;;8.37;100.00
34925;BME280;21130;51.728;8.748;2023-04-20T09:40:22;100655.28;;;8.49;100.00
34925;BME280;21130;51.728;8.748;2023-04-20T09:42:50;100657.16;;;8.73;100.00
34925;BME280;21130;51.728;8.748;2023-04-20T09:45:20;100655.97;;;8.62;100.00
34925;BME280;21130;51.728;8.748;2023-04-20T09:47:47;100656.13;;;8.68;100.00
34925;BME280;21130;51.728;8.748;2023-04-20T09:50:15;100656.91;;;8.75;100.00
34925;BME280;21130;51.728;8.748;2023-04-20T09:52:42;100657.59;;;8.70;100.00
34925;BME280;21130;51.728;8.748;2023-04-20T09:55:14;100664.84;;;8.71;100.00
34925;BME280;21130;51.728;8.748;2023-04-20T09:57:41;100654.69;;;8.40;100.00
34925;BME280;21130;51.728;8.748;2023-04-20T10:00:09;100651.91;;;8.15;100.00
34925;BME280;21130;51.728;8.748;2023-04-20T10:02:37;100655.13;;;8.12;100.00
34925;BME280;21130;51.728;8.748;2023-04-20T10:05:05;100656.69;;;8.08;100.00
34925;BME280;21130;51.728;8.748;2023-04-20T10:07:32;100661.41;;;8.00;100.00
34925;BME280;21130;51.728;8.748;2023-04-20T10:10:07;100660.94;;;8.04;100.00
34925;BME280;21130;51.728;8.748;2023-04-20T10:12:47;100660.94;;;8.04;100.00
34925;BME280;21130;51.728;8.748;2023-04-20T10:15:14;100666.94;;;8.00;100.00
34925;BME280;21130;51.728;8.748;2023-04-20T10:17:42;100663.25;;;8.07;100.00
34925;BME280;21130;51.728;8.748;2023-04-20T10:20:19;100662.09;;;8.21;100.00
34925;BME280;21130;51.728;8.748;2023-04-20T10:22:46;100659.66;;;8.31;100.00
34925;BME280;21130;51.728;8.748;2023-04-20T10:25:17;100658.00;;;8.92;100.00
34925;BME280;21130;51.728;8.748;2023-04-20T10:27:57;100653.59;;;9.40;100.00
34925;BME280;21130;51.728;8.748;2023-04-20T10:30:24;100652.50;;;10.01;100.00
34925;BME280;21130;51.728;8.748;2023-04-20T10:33:02;100653.41;;;10.37;100.00
34925;BME280;21130;51.728;8.748;2023-04-20T10:35:28;100645.53;;;10.22;100.00
34925;BME280;21130;51.728;8.748;2023-04-20T10:38:06;100656.97;;;10.14;100.00
34925;BME280;21130;51.728;8.748;2023-04-20T10:40:32;100650.06;;;10.05;100.00
34925;BME280;21130;51.728;8.748;2023-04-20T10:43:00;100643.84;;;10.21;100.00
34925;BME280;21130;51.728;8.748;2023-04-20T10:45:34;100641.41;;;10.13;100.00
34925;BME280;21130;51.728;8.748;2023-04-20T10:48:06;100632.78;;;10.45;100.00
34925;BME280;21130;51.728;8.748;2023-04-20T10:50:33;100631.69;;;10.46;100.00
34925;BME280;21130;51.728;8.748;2023-04-20T10:53:00;100629.41;;;10.66;100.00
34925;BME280;21130;51.728;8.748;2023-04-20T10:55:27;100628.13;;;11.50;100.00
34925;BME280;21130;51.728;8.748;2023-04-20T10:57:53;100613.72;;;11.98;88.74
34925;BME280;21130;51.728;8.748;2023-04-20T11:00:23;100608.81;;;12.56;82.31
34925;BME280;21130;51.728;8.748;2023-04-20T11:02:51;100614.41;;;13.17;76.17
34925;BME280;21130;51.728;8.748;2023-04-20T11:05:20;100610.25;;;13.19;69.16
34925;BME280;21130;51.728;8.748;2023-04-20T11:07:50;100604.16;;;13.45;66.43
34925;BME280;21130;51.728;8.748;2023-04-20T11:10:17;100601.66;;;13.70;65.04
34925;BME280;21130;51.728;8.748;2023-04-20T11:12:44;100605.72;;;14.22;61.88
34925;BME280;21130;51.728;8.748;2023-04-20T11:15:11;100603.94;;;13.51;60.73
34925;BME280;21130;51.728;8.748;2023-04-20T11:17:39;100599.41;;;13.01;61.49
34925;BME280;21130;51.728;8.748;2023-04-20T11:20:08;100596.63;;;12.79;65.59
34925;BME280;21130;51.728;8.748;2023-04-20T11:22:35;100604.44;;;12.43;65.49
34925;BME280;21130;51.728;8.748;2023-04-20T11:25:03;100608.84;;;12.05;66.30
34925;BME280;21130;51.728;8.748;2023-04-20T11:27:31;100598.13;;;11.52;67.73
34925;BME280;21130;51.728;8.748;2023-04-20T11:29:58;100603.41;;;11.36;68.99
34925;BME280;21130;51.728;8.748;2023-04-20T11:32:30;100596.88;;;11.31;72.27
34925;BME280;21130;51.728;8.748;2023-04-20T11:34:59;100610.41;;;10.98;75.80
34925;BME280;21130;51.728;8.748;2023-04-20T11:37:26;100608.19;;;10.48;78.96
34925;BME280;21130;51.728;8.748;2023-04-20T11:40:00;100613.91;;;10.23;88.48
34925;BME280;21130;51.728;8.748;2023-04-20T11:42:26;100612.56;;;10.02;94.51
34925;BME280;21130;51.728;8.748;2023-04-20T11:44:55;100614.13;;;9.86;97.54
34925;BME280;21130;51.728;8.748;2023-04-20T11:47:21;100617.25;;;9.90;97.48
34925;BME280;21130;51.728;8.748;2023-04-20T11:49:48;100611.78;;;9.71;98.91
34925;BME280;21130;51.728;8.748;2023-04-20T11:52:16;100603.59;;;9.77;99.01
34925;BME280;21130;51.728;8.748;2023-04-20T11:54:43;100604.47;;;9.47;100.00
34925;BME280;21130;51.728;8.748;2023-04-20T11:57:10;100600.59;;;9.48;100.00
34925;BME280;21130;51.728;8.748;2023-04-20T11:59:36;100585.09;;;9.47;100.00
34925;BME280;21130;51.728;8.748;2023-04-20T12:02:03;100594.06;;;9.61;100.00
34925;BME280;21130;51.728;8.748;2023-04-20T12:04:30;100592.41;;;9.95;100.00
34925;BME280;21130;51.728;8.748;2023-04-20T12:06:57;100580.28;;;10.20;97.15
34925;BME280;21130;51.728;8.748;2023-04-20T12:09:25;100588.38;;;10.21;96.36
34925;BME280;21130;51.728;8.748;2023-04-20T12:11:52;100578.34;;;10.55;93.28
34925;BME280;21130;51.728;8.748;2023-04-20T12:14:18;100574.88;;;11.00;86.78
34925;BME280;21130;51.728;8.748;2023-04-20T12:16:45;100584.63;;;11.43;84.00
34925;BME280;21130;51.728;8.748;2023-04-20T12:19:12;100573.03;;;11.92;76.26
34925;BME280;21130;51.728;8.748;2023-04-20T12:21:38;100571.56;;;12.23;71.40
34925;BME280;21130;51.728;8.748;2023-04-20T12:24:05;100571.41;;;11.79;67.17
34925;BME280;21130;51.728;8.748;2023-04-20T12:26:33;100568.63;;;12.30;68.43
34925;BME280;21130;51.728;8.748;2023-04-20T12:29:01;100572.66;;;12.78;65.22
34925;BME280;21130;51.728;8.748;2023-04-20T12:31:28;100570.97;;;13.43;61.73
34925;BME280;21130;51.728;8.748;2023-04-20T12:33:54;100559.28;;;14.43;60.09
34925;BME280;21130;51.728;8.748;2023-04-20T12:36:21;100559.22;;;14.75;55.98
34925;BME280;21130;51.728;8.748;2023-04-20T12:38:49;100561.31;;;15.05;55.46
34925;BME280;21130;51.728;8.748;2023-04-20T12:41:16;100569.00;;;14.35;55.31
34925;BME280;21130;51.728;8.748;2023-04-20T12:43:44;100562.78;;;13.36;57.52
34925;BME280;21130;51.728;8.748;2023-04-20T12:46:11;100560.28;;;12.91;59.17
34925;BME280;21130;51.728;8.748;2023-04-20T12:48:38;100564.34;;;12.22;62.40
34925;BME280;21130;51.728;8.748;2023-04-20T12:51:05;100558.34;;;12.30;66.72
34925;BME280;21130;51.728;8.748;2023-04-20T12:53:32;100559.84;;;12.21;66.67
34925;BME280;21130;51.728;8.748;2023-04-20T12:55:58;100549.41;;;12.28;66.33
34925;BME280;21130;51.728;8.748;2023-04-20T12:58:25;100551.56;;;12.43;67.85
34925;BME280;21130;51.728;8.748;2023-04-20T13:00:53;100541.72;;;12.36;69.48